createdAt,value
2018-06-30T15:51:01.992Z,320.00
2018-06-30T15:51:37.719Z,316.00
2018-06-30T15:52:13.407Z,316.00
2018-06-30T15:52:48.714Z,324.00
2018-06-30T15:53:24.004Z,320.00
2018-06-30T15:56:39.422Z,316.00
2018-06-30T15:57:14.969Z,308.00
2018-06-30T15:57:50.376Z,312.00
2018-06-30T15:58:25.783Z,308.00
2018-06-30T15:59:00.901Z,312.00
2018-06-30T15:59:36.254Z,304.00
2018-06-30T16:00:11.443Z,300.00
2018-06-30T16:00:47.463Z,304.00
2018-06-30T16:01:22.514Z,304.00
2018-06-30T16:01:57.956Z,300.00
2018-06-30T16:02:33.614Z,304.00
2018-06-30T16:03:09.125Z,304.00
2018-06-30T16:03:45.338Z,300.00
2018-06-30T16:06:59.733Z,296.00
2018-06-30T16:07:35.182Z,300.00
2018-06-30T16:08:10.691Z,296.00
2018-06-30T16:08:46.032Z,296.00
2018-06-30T16:09:21.522Z,292.00
2018-06-30T16:09:56.926Z,288.00
2018-06-30T16:10:32.237Z,296.00
2018-06-30T16:11:07.554Z,296.00
2018-06-30T16:11:45.309Z,296.00
2018-06-30T16:12:20.615Z,292.00
2018-06-30T16:12:57.646Z,296.00
2018-06-30T16:13:32.835Z,292.00
2018-06-30T16:14:09.557Z,292.00
2018-06-30T16:14:44.867Z,284.00
2018-06-30T16:15:20.120Z,288.00
2018-06-30T16:15:55.488Z,288.00
2018-06-30T16:16:30.947Z,292.00
2018-06-30T16:17:06.292Z,304.00
2018-06-30T16:17:41.809Z,280.00
2018-06-30T16:18:17.216Z,288.00
2018-06-30T16:18:52.536Z,288.00
2018-06-30T16:19:28.142Z,284.00
2018-06-30T16:20:03.596Z,284.00
2018-06-30T16:20:39.643Z,284.00
2018-06-30T16:21:14.995Z,280.00
2018-06-30T16:23:55.858Z,284.00
2018-06-30T16:24:31.192Z,280.00
2018-06-30T16:25:06.512Z,280.00
2018-06-30T16:25:41.748Z,284.00
2018-06-30T16:26:17.592Z,280.00
2018-06-30T16:26:53.060Z,276.00
2018-06-30T16:27:28.361Z,276.00
2018-06-30T16:28:03.709Z,276.00
2018-06-30T16:28:39.216Z,268.00
2018-06-30T16:29:14.418Z,272.00
2018-06-30T16:29:50.231Z,272.00
2018-06-30T16:30:25.840Z,268.00
2018-06-30T16:31:02.645Z,276.00
2018-06-30T16:31:38.183Z,276.00
2018-06-30T16:32:15.222Z,276.00
2018-06-30T16:32:50.657Z,268.00
2018-06-30T16:33:26.071Z,272.00
2018-06-30T16:34:01.392Z,272.00
2018-06-30T16:34:36.686Z,268.00
2018-06-30T16:35:12.132Z,264.00
2018-06-30T16:35:47.312Z,268.00
2018-06-30T16:36:22.718Z,264.00
2018-06-30T16:36:59.308Z,264.00
2018-06-30T16:37:34.626Z,236.00
2018-06-30T16:38:09.839Z,276.00
2018-06-30T16:38:45.788Z,264.00
2018-06-30T16:39:21.125Z,264.00
2018-06-30T16:39:56.678Z,260.00
2018-06-30T16:40:32.099Z,264.00
2018-06-30T16:41:07.526Z,268.00
2018-06-30T16:41:43.308Z,260.00
2018-06-30T16:42:18.443Z,260.00
2018-06-30T16:42:53.898Z,252.00
2018-06-30T16:43:29.289Z,256.00
2018-06-30T16:44:04.599Z,260.00
2018-06-30T16:44:40.703Z,260.00
2018-06-30T16:45:16.261Z,260.00
2018-06-30T16:45:51.771Z,264.00
2018-06-30T16:46:27.156Z,252.00
2018-06-30T16:47:02.526Z,252.00
2018-06-30T16:47:37.829Z,252.00
2018-06-30T16:48:13.057Z,256.00
2018-06-30T16:48:49.235Z,264.00
2018-06-30T16:49:24.474Z,260.00
2018-06-30T16:50:01.514Z,252.00
2018-06-30T16:50:38.629Z,256.00
2018-06-30T16:53:15.346Z,256.00
2018-06-30T16:53:51.878Z,252.00
2018-06-30T16:54:27.087Z,252.00
2018-06-30T16:55:02.819Z,252.00
2018-06-30T16:55:39.297Z,252.00
2018-06-30T16:56:14.824Z,256.00
2018-06-30T16:56:50.546Z,252.00
2018-06-30T16:57:26.175Z,256.00
2018-06-30T16:58:01.532Z,256.00
2018-06-30T16:58:37.418Z,260.00
2018-06-30T16:59:12.651Z,252.00
2018-06-30T16:59:48.152Z,232.00
2018-06-30T17:00:23.953Z,240.00
2018-06-30T17:01:00.078Z,252.00
2018-06-30T17:01:35.656Z,252.00
2018-06-30T17:02:10.913Z,252.00
2018-06-30T17:02:46.324Z,244.00
2018-06-30T17:03:21.848Z,252.00
2018-06-30T17:03:57.420Z,244.00
2018-06-30T17:04:33.016Z,248.00
2018-06-30T17:05:08.937Z,244.00
2018-06-30T17:05:44.238Z,248.00
2018-06-30T17:06:19.733Z,236.00
2018-06-30T17:06:54.904Z,256.00
2018-06-30T17:07:30.201Z,244.00
2018-06-30T17:08:05.938Z,248.00
2018-06-30T17:08:41.517Z,244.00
2018-06-30T17:09:16.846Z,248.00
2018-06-30T17:09:52.154Z,248.00
2018-06-30T17:10:27.501Z,244.00
2018-06-30T17:11:02.936Z,248.00
2018-06-30T17:11:38.454Z,248.00
2018-06-30T17:12:13.887Z,240.00
2018-06-30T17:12:49.284Z,244.00
2018-06-30T17:13:24.914Z,244.00
2018-06-30T17:14:00.268Z,248.00
2018-06-30T17:14:35.461Z,244.00
2018-06-30T17:15:11.089Z,244.00
2018-06-30T17:15:46.598Z,248.00
2018-06-30T17:18:22.991Z,244.00
2018-06-30T17:18:58.302Z,244.00
2018-06-30T17:19:33.717Z,236.00
2018-06-30T17:20:09.357Z,248.00
2018-06-30T17:20:46.246Z,244.00
2018-06-30T17:21:21.678Z,244.00
2018-06-30T17:21:57.222Z,248.00
2018-06-30T17:22:32.800Z,244.00
2018-06-30T17:23:08.021Z,244.00
2018-06-30T17:23:43.395Z,240.00
2018-06-30T17:24:18.787Z,240.00
2018-06-30T17:24:54.251Z,240.00
2018-06-30T17:25:29.624Z,240.00
2018-06-30T17:26:05.275Z,244.00
2018-06-30T17:26:40.853Z,240.00
2018-06-30T17:27:16.208Z,236.00
2018-06-30T17:27:51.402Z,244.00
2018-06-30T17:28:26.609Z,244.00
2018-06-30T17:29:02.001Z,240.00
2018-06-30T17:29:37.224Z,220.00
2018-06-30T17:30:12.436Z,236.00
2018-06-30T17:30:49.352Z,236.00
2018-06-30T17:31:24.975Z,240.00
2018-06-30T17:32:00.478Z,236.00
2018-06-30T17:32:36.226Z,240.00
2018-06-30T17:33:11.233Z,236.00
2018-06-30T17:33:46.543Z,236.00
2018-06-30T17:34:21.886Z,236.00
2018-06-30T17:34:57.181Z,240.00
2018-06-30T17:35:32.326Z,236.00
2018-06-30T17:36:07.565Z,224.00
2018-06-30T17:36:42.866Z,236.00
2018-06-30T17:37:18.211Z,232.00
2018-06-30T17:37:53.417Z,236.00
2018-06-30T17:38:29.156Z,228.00
2018-06-30T17:39:04.664Z,232.00
2018-06-30T17:39:40.162Z,236.00
2018-06-30T17:40:15.581Z,232.00
2018-06-30T17:40:50.781Z,232.00
2018-06-30T17:41:25.980Z,228.00
2018-06-30T17:42:01.260Z,228.00
2018-06-30T17:42:36.598Z,232.00
2018-06-30T17:43:11.736Z,228.00
2018-06-30T17:43:47.233Z,228.00
2018-06-30T17:44:22.557Z,228.00
2018-06-30T17:44:58.046Z,224.00
2018-06-30T17:45:33.533Z,228.00
2018-06-30T17:46:08.602Z,224.00
2018-06-30T17:46:43.790Z,228.00
2018-06-30T17:47:18.945Z,224.00
2018-06-30T17:47:54.439Z,224.00
2018-06-30T17:48:29.559Z,228.00
2018-06-30T17:49:05.189Z,216.00
2018-06-30T17:49:40.598Z,220.00
2018-06-30T17:50:15.743Z,224.00
2018-06-30T17:50:50.957Z,220.00
2018-06-30T17:51:26.312Z,220.00
2018-06-30T17:52:01.602Z,224.00
2018-06-30T17:52:37.270Z,220.00
2018-06-30T17:53:12.466Z,220.00
2018-06-30T17:53:47.557Z,220.00
2018-06-30T17:54:22.771Z,220.00
2018-06-30T17:54:58.372Z,220.00
2018-06-30T17:55:33.838Z,220.00
2018-06-30T17:56:09.356Z,220.00
2018-06-30T17:56:44.664Z,216.00
2018-06-30T17:57:20.204Z,220.00
2018-06-30T17:57:55.533Z,220.00
2018-06-30T18:01:10.016Z,212.00
2018-06-30T18:01:46.245Z,216.00
2018-06-30T18:02:21.587Z,216.00
2018-06-30T18:02:56.919Z,216.00
2018-06-30T18:03:32.148Z,212.00
2018-06-30T18:04:07.473Z,216.00
2018-06-30T18:04:43.489Z,212.00
2018-06-30T18:05:18.842Z,216.00
2018-06-30T18:05:55.628Z,212.00
2018-06-30T18:06:30.949Z,212.00
2018-06-30T18:07:06.250Z,212.00
2018-06-30T18:07:41.470Z,212.00
2018-06-30T18:08:16.797Z,208.00
2018-06-30T18:08:52.199Z,208.00
2018-06-30T18:09:27.859Z,208.00
2018-06-30T18:10:02.995Z,208.00
2018-06-30T18:10:38.369Z,208.00
2018-06-30T18:11:13.585Z,208.00
2018-06-30T18:11:48.990Z,204.00
2018-06-30T18:12:24.327Z,204.00
2018-06-30T18:12:59.658Z,208.00
2018-06-30T18:13:34.966Z,208.00
2018-06-30T18:14:10.534Z,204.00
2018-06-30T18:14:46.502Z,208.00
2018-06-30T18:15:22.049Z,204.00
2018-06-30T18:15:57.517Z,204.00
2018-06-30T18:16:32.872Z,204.00
2018-06-30T18:17:08.327Z,208.00
2018-06-30T18:17:43.690Z,200.00
2018-06-30T18:18:19.139Z,204.00
2018-06-30T18:18:54.342Z,204.00
2018-06-30T18:19:30.060Z,200.00
2018-06-30T18:20:05.482Z,200.00
2018-06-30T18:20:41.280Z,200.00
2018-06-30T18:21:16.956Z,204.00
2018-06-30T18:21:52.164Z,200.00
2018-06-30T18:22:27.286Z,200.00
2018-06-30T18:23:02.928Z,204.00
2018-06-30T18:23:38.145Z,196.00
2018-06-30T18:24:13.402Z,200.00
2018-06-30T18:24:48.700Z,196.00
2018-06-30T18:25:23.918Z,196.00
2018-06-30T18:25:59.266Z,192.00
2018-06-30T18:26:34.797Z,192.00
2018-06-30T18:27:10.374Z,192.00
2018-06-30T18:27:46.015Z,192.00
2018-06-30T18:28:21.451Z,192.00
2018-06-30T18:28:56.877Z,192.00
2018-06-30T18:29:31.995Z,192.00
2018-06-30T18:30:07.148Z,192.00
2018-06-30T18:30:42.543Z,188.00
2018-06-30T18:31:17.965Z,192.00
2018-06-30T18:31:53.103Z,188.00
2018-06-30T18:32:28.283Z,188.00
2018-06-30T18:33:03.651Z,188.00
2018-06-30T18:33:38.867Z,192.00
2018-06-30T18:34:14.282Z,184.00
2018-06-30T18:34:49.675Z,188.00
2018-06-30T18:35:25.102Z,184.00
2018-06-30T18:36:00.523Z,184.00
2018-06-30T18:36:35.653Z,184.00
2018-06-30T18:37:10.894Z,180.00
2018-06-30T18:37:46.220Z,180.00
2018-06-30T18:38:21.932Z,180.00
2018-06-30T18:38:57.433Z,180.00
2018-06-30T18:39:32.966Z,180.00
2018-06-30T18:40:08.505Z,180.00
2018-06-30T18:40:44.183Z,180.00
2018-06-30T18:41:19.565Z,176.00
2018-06-30T18:41:54.773Z,176.00
2018-06-30T18:42:30.309Z,176.00
2018-06-30T18:43:05.766Z,172.00
2018-06-30T18:43:41.375Z,172.00
2018-06-30T18:44:16.824Z,176.00
2018-06-30T18:44:52.206Z,172.00
2018-06-30T18:45:27.327Z,172.00
2018-06-30T18:46:02.883Z,172.00
2018-06-30T18:46:38.106Z,172.00
2018-06-30T18:47:13.490Z,168.00
2018-06-30T18:47:48.621Z,168.00
2018-06-30T18:48:23.883Z,164.00
2018-06-30T18:48:59.095Z,164.00
2018-06-30T18:49:34.446Z,168.00
2018-06-30T18:50:10.202Z,164.00
2018-06-30T18:50:45.402Z,164.00
2018-06-30T18:51:20.843Z,164.00
2018-06-30T18:51:56.358Z,164.00
2018-06-30T18:52:32.190Z,160.00
2018-06-30T18:53:07.512Z,160.00
2018-06-30T18:53:42.911Z,160.00
2018-06-30T18:54:18.255Z,160.00
2018-06-30T18:54:53.483Z,156.00
2018-06-30T18:55:29.094Z,156.00
2018-06-30T18:56:04.412Z,152.00
2018-06-30T18:56:39.517Z,156.00
2018-06-30T18:57:14.954Z,156.00
2018-06-30T18:57:50.056Z,152.00
2018-06-30T18:58:25.436Z,152.00
2018-06-30T18:59:01.274Z,152.00
2018-06-30T18:59:36.375Z,148.00
2018-06-30T19:00:11.723Z,144.00
2018-06-30T19:03:27.501Z,140.00
2018-06-30T19:04:03.768Z,140.00
2018-06-30T19:04:39.227Z,140.00
2018-06-30T19:05:14.739Z,136.00
2018-06-30T19:05:49.943Z,136.00
2018-06-30T19:06:25.348Z,132.00
2018-06-30T19:07:00.540Z,132.00
2018-06-30T19:07:35.936Z,132.00
2018-06-30T19:08:11.142Z,128.00
2018-06-30T19:08:46.456Z,128.00
2018-06-30T19:09:22.183Z,128.00
2018-06-30T19:09:57.328Z,124.00
2018-06-30T19:10:33.004Z,124.00
2018-06-30T19:11:08.322Z,124.00
2018-06-30T19:11:43.508Z,124.00
2018-06-30T19:12:18.677Z,120.00
2018-06-30T19:12:53.988Z,120.00
2018-06-30T19:13:29.226Z,116.00
2018-06-30T19:14:04.553Z,116.00
2018-06-30T19:14:40.078Z,116.00
2018-06-30T19:15:15.402Z,112.00
2018-06-30T19:15:50.937Z,112.00
2018-06-30T19:16:26.311Z,112.00
2018-06-30T19:17:05.498Z,108.00
2018-06-30T19:17:40.927Z,108.00
2018-06-30T19:18:16.374Z,104.00
2018-06-30T19:18:52.002Z,104.00
2018-06-30T19:19:27.424Z,104.00
2018-06-30T19:20:02.932Z,100.00
2018-06-30T19:20:38.356Z,100.00
2018-06-30T19:21:13.880Z,100.00
2018-06-30T19:21:49.472Z,96.00
2018-06-30T19:22:24.799Z,96.00
2018-06-30T19:23:00.181Z,92.00
2018-06-30T19:23:35.445Z,92.00
2018-06-30T19:24:11.078Z,92.00
2018-06-30T19:24:46.249Z,88.00
2018-06-30T19:25:21.814Z,88.00
2018-06-30T19:25:57.405Z,84.00
2018-06-30T19:26:32.743Z,88.00
2018-06-30T19:27:08.364Z,84.00
2018-06-30T19:27:44.311Z,80.00
2018-06-30T19:28:19.758Z,80.00
2018-06-30T19:28:55.268Z,80.00
2018-06-30T19:29:30.702Z,80.00
2018-06-30T19:30:06.003Z,76.00
2018-06-30T19:30:44.206Z,72.00
2018-06-30T19:31:19.256Z,76.00
2018-06-30T19:31:54.375Z,72.00
2018-06-30T19:32:29.703Z,72.00
2018-06-30T19:33:04.936Z,68.00
2018-06-30T19:33:40.425Z,64.00
2018-06-30T19:34:16.769Z,64.00
2018-06-30T19:37:32.152Z,56.00
2018-06-30T19:38:08.268Z,56.00
2018-06-30T19:38:43.410Z,52.00
2018-06-30T19:39:18.739Z,52.00
2018-06-30T19:39:53.934Z,52.00
2018-06-30T19:40:29.586Z,48.00
2018-06-30T19:41:04.772Z,48.00
2018-06-30T19:41:39.811Z,44.00
2018-06-30T19:42:15.148Z,48.00
2018-06-30T19:42:50.533Z,44.00
2018-06-30T19:43:25.835Z,40.00
2018-06-30T19:44:01.067Z,40.00
2018-06-30T19:44:36.859Z,36.00
2018-06-30T19:45:12.165Z,40.00
2018-06-30T19:45:47.266Z,36.00
2018-06-30T19:46:22.492Z,36.00
2018-06-30T19:46:57.685Z,32.00
2018-06-30T19:47:33.315Z,36.00
2018-06-30T19:48:08.654Z,32.00
2018-06-30T19:48:45.171Z,28.00
2018-06-30T19:49:20.404Z,28.00
2018-06-30T19:49:55.705Z,28.00
2018-06-30T19:50:31.410Z,28.00
2018-06-30T19:51:09.998Z,24.00
2018-06-30T19:51:45.505Z,28.00
2018-06-30T19:52:21.028Z,24.00
2018-06-30T19:52:56.490Z,20.00
2018-06-30T19:53:31.701Z,24.00
2018-06-30T19:56:08.164Z,20.00
2018-06-30T19:56:43.301Z,16.00
2018-06-30T19:57:18.594Z,16.00
2018-06-30T19:57:54.031Z,16.00
2018-06-30T19:58:29.737Z,16.00
2018-06-30T19:59:05.226Z,12.00
2018-06-30T19:59:40.602Z,16.00
2018-06-30T20:00:15.517Z,12.00
2018-06-30T20:00:50.816Z,12.00
2018-06-30T20:01:26.206Z,12.00
2018-06-30T20:02:01.699Z,12.00
2018-06-30T20:02:37.528Z,8.00
2018-06-30T20:03:12.606Z,12.00
2018-06-30T20:03:47.711Z,8.00
2018-06-30T20:04:23.126Z,8.00
2018-06-30T20:05:01.844Z,8.00
2018-06-30T20:05:38.028Z,8.00
2018-06-30T20:06:13.150Z,8.00
2018-06-30T20:06:48.578Z,4.00
2018-06-30T20:07:23.699Z,4.00
2018-06-30T20:07:59.385Z,8.00
2018-06-30T20:08:34.697Z,4.00
2018-06-30T20:09:10.059Z,4.00
2018-06-30T20:12:24.529Z,4.00
2018-06-30T20:12:59.856Z,4.00
2018-06-30T20:13:36.251Z,0.00
2018-06-30T20:14:11.568Z,4.00
2018-06-30T20:14:47.074Z,4.00
2018-06-30T20:15:22.410Z,4.00
2018-06-30T20:15:57.901Z,4.00
2018-06-30T20:16:33.411Z,0.00
2018-06-30T20:17:08.701Z,0.00
2018-06-30T20:17:44.017Z,0.00
2018-06-30T20:18:19.321Z,0.00
2018-06-30T20:18:54.704Z,0.00
2018-06-30T20:19:30.130Z,4.00
2018-06-30T20:20:05.232Z,4.00
2018-06-30T20:20:40.582Z,4.00
2018-06-30T20:21:16.091Z,4.00
2018-06-30T20:21:51.665Z,0.00
2018-06-30T20:22:26.790Z,0.00
2018-06-30T20:23:02.216Z,0.00
2018-06-30T20:23:37.542Z,0.00
2018-06-30T20:24:12.930Z,0.00
2018-06-30T20:24:51.676Z,0.00
2018-06-30T20:25:26.906Z,0.00
2018-06-30T20:26:02.357Z,0.00
2018-06-30T20:26:37.859Z,0.00
2018-06-30T20:27:13.455Z,0.00
2018-06-30T20:27:48.573Z,0.00
2018-06-30T20:28:24.097Z,0.00
2018-06-30T20:28:59.687Z,0.00
2018-06-30T20:29:34.671Z,0.00
2018-06-30T20:30:10.686Z,0.00
2018-06-30T20:30:48.492Z,0.00
2018-06-30T20:31:23.636Z,0.00
2018-06-30T20:31:59.155Z,0.00
2018-06-30T20:32:34.507Z,0.00
2018-06-30T20:33:10.000Z,0.00
2018-06-30T20:33:46.427Z,0.00
2018-06-30T20:34:21.762Z,0.00
2018-06-30T20:34:57.039Z,0.00
2018-06-30T20:35:32.251Z,0.00
2018-06-30T20:36:07.627Z,0.00
2018-06-30T20:36:42.902Z,0.00
2018-06-30T20:37:18.033Z,0.00
2018-06-30T20:37:53.237Z,0.00
2018-06-30T20:38:28.690Z,0.00
2018-06-30T20:39:04.173Z,0.00
2018-06-30T20:39:39.656Z,0.00
2018-06-30T20:40:14.933Z,0.00
2018-06-30T20:40:51.633Z,0.00
2018-06-30T20:41:26.957Z,0.00
2018-06-30T20:42:02.489Z,0.00
2018-06-30T20:42:37.718Z,0.00
2018-06-30T20:43:13.018Z,0.00
2018-06-30T20:43:48.334Z,0.00
2018-06-30T20:44:23.805Z,0.00
2018-06-30T20:44:59.021Z,0.00
2018-06-30T20:45:34.572Z,0.00
2018-06-30T20:46:10.059Z,0.00
2018-06-30T20:46:45.586Z,0.00
2018-06-30T20:47:21.205Z,0.00
2018-06-30T20:47:56.941Z,0.00
2018-06-30T20:48:32.347Z,0.00
2018-06-30T20:49:07.657Z,0.00
2018-06-30T20:49:42.769Z,0.00
2018-06-30T20:50:18.624Z,0.00
2018-06-30T20:50:55.359Z,0.00
2018-06-30T20:51:30.585Z,0.00
2018-06-30T20:52:06.206Z,0.00
2018-06-30T20:52:41.944Z,0.00
2018-06-30T20:53:17.056Z,0.00
2018-06-30T20:53:52.095Z,0.00
2018-06-30T20:54:27.456Z,0.00
2018-06-30T20:55:02.975Z,0.00
2018-06-30T20:55:38.603Z,0.00
2018-06-30T20:56:14.019Z,0.00
2018-06-30T20:56:49.045Z,0.00
2018-06-30T20:57:24.490Z,0.00
2018-06-30T20:57:59.746Z,0.00
2018-06-30T20:58:35.193Z,0.00
2018-06-30T20:59:10.397Z,0.00
2018-06-30T20:59:45.727Z,0.00
2018-06-30T21:00:21.156Z,0.00
2018-06-30T21:00:56.397Z,0.00
2018-06-30T21:01:31.913Z,0.00
2018-06-30T21:02:07.295Z,0.00
2018-06-30T21:02:42.935Z,0.00
2018-06-30T21:03:18.247Z,0.00
2018-06-30T21:03:53.470Z,0.00
2018-06-30T21:04:28.887Z,0.00
2018-06-30T21:05:04.061Z,0.00
2018-06-30T21:05:39.121Z,0.00
2018-06-30T21:06:14.310Z,0.00
2018-06-30T21:06:49.750Z,0.00
2018-06-30T21:07:24.978Z,0.00
2018-06-30T21:08:00.317Z,0.00
2018-06-30T21:08:35.460Z,0.00
2018-06-30T21:09:10.568Z,0.00
2018-06-30T21:09:45.858Z,0.00
2018-06-30T21:10:21.345Z,0.00
2018-06-30T21:10:56.769Z,0.00
2018-06-30T21:11:31.999Z,0.00
2018-06-30T21:12:07.427Z,0.00
2018-06-30T21:12:42.677Z,0.00
2018-06-30T21:13:18.366Z,0.00
2018-06-30T21:13:54.202Z,0.00
2018-06-30T21:14:29.823Z,0.00
2018-06-30T21:15:04.813Z,0.00
2018-06-30T21:15:40.965Z,0.00
2018-06-30T21:16:16.365Z,0.00
2018-06-30T21:16:51.558Z,0.00
2018-06-30T21:17:27.342Z,0.00
2018-06-30T21:18:02.785Z,0.00
2018-06-30T21:18:38.159Z,0.00
2018-06-30T21:19:13.251Z,0.00
2018-06-30T21:19:48.796Z,0.00
2018-06-30T21:20:23.952Z,0.00
2018-06-30T21:21:00.963Z,0.00
2018-06-30T21:21:36.588Z,0.00
2018-06-30T21:22:12.091Z,0.00
2018-06-30T21:22:47.512Z,0.00
2018-06-30T21:23:22.641Z,0.00
2018-06-30T21:23:58.066Z,0.00
2018-06-30T21:24:33.391Z,0.00
2018-06-30T21:25:08.776Z,0.00
2018-06-30T21:25:44.182Z,0.00
2018-06-30T21:26:19.458Z,0.00
2018-06-30T21:26:54.707Z,0.00
2018-06-30T21:27:29.839Z,0.00
2018-06-30T21:28:05.386Z,0.00
2018-06-30T21:28:40.911Z,0.00
2018-06-30T21:29:16.197Z,0.00
2018-06-30T21:29:51.955Z,0.00
2018-06-30T21:30:27.310Z,0.00
2018-06-30T21:31:03.509Z,0.00
2018-06-30T21:31:39.145Z,0.00
2018-06-30T21:32:14.537Z,0.00
2018-06-30T21:32:49.905Z,0.00
2018-06-30T21:33:25.444Z,0.00
2018-06-30T21:34:00.871Z,0.00
2018-06-30T21:34:36.114Z,0.00
2018-06-30T21:35:11.291Z,0.00
2018-06-30T21:35:47.715Z,0.00
2018-06-30T21:36:23.337Z,0.00
2018-06-30T21:36:59.832Z,0.00
2018-06-30T21:37:35.842Z,0.00
2018-06-30T21:38:10.898Z,0.00
2018-06-30T21:38:46.285Z,0.00
2018-06-30T21:39:21.423Z,0.00
2018-06-30T21:39:56.459Z,0.00
2018-06-30T21:40:31.757Z,0.00
2018-06-30T21:41:07.074Z,0.00
2018-06-30T21:41:42.171Z,0.00
2018-06-30T21:42:17.791Z,0.00
2018-06-30T21:42:53.322Z,0.00
2018-06-30T21:43:28.539Z,0.00
2018-06-30T21:44:05.049Z,0.00
2018-06-30T21:44:40.367Z,0.00
2018-06-30T21:45:15.782Z,0.00
2018-06-30T21:45:51.195Z,0.00
2018-06-30T21:46:26.889Z,0.00
2018-06-30T21:47:02.411Z,0.00
2018-06-30T21:47:37.997Z,0.00
2018-06-30T21:48:13.357Z,0.00
2018-06-30T21:48:48.789Z,0.00
2018-06-30T21:49:24.022Z,0.00
2018-06-30T21:49:59.793Z,0.00
2018-06-30T21:50:35.584Z,0.00
2018-06-30T21:51:10.793Z,0.00
2018-06-30T21:51:46.182Z,0.00
2018-06-30T21:52:21.509Z,0.00
2018-06-30T21:52:57.023Z,0.00
2018-06-30T21:53:32.157Z,0.00
2018-06-30T21:54:07.365Z,0.00
2018-06-30T21:54:42.568Z,0.00
2018-06-30T21:55:18.083Z,0.00
2018-06-30T21:55:53.392Z,0.00
2018-06-30T21:56:28.411Z,0.00
2018-06-30T21:57:03.754Z,0.00
2018-06-30T21:57:39.228Z,0.00
2018-06-30T21:58:14.468Z,0.00
2018-06-30T21:58:49.762Z,0.00
2018-06-30T21:59:24.802Z,0.00
2018-06-30T21:59:59.923Z,0.00
2018-06-30T22:00:35.143Z,0.00
2018-06-30T22:01:10.462Z,0.00
2018-06-30T22:01:45.677Z,0.00
2018-06-30T22:02:21.120Z,0.00
2018-06-30T22:02:56.320Z,0.00
2018-06-30T22:03:31.454Z,0.00
2018-06-30T22:04:06.750Z,0.00
2018-06-30T22:04:45.358Z,0.00
2018-06-30T22:05:20.493Z,0.00
2018-06-30T22:05:55.920Z,0.00
2018-06-30T22:06:31.135Z,0.00
2018-06-30T22:07:06.672Z,0.00
2018-06-30T22:07:42.381Z,0.00
2018-06-30T22:08:17.590Z,0.00
2018-06-30T22:08:53.242Z,0.00
2018-06-30T22:09:28.383Z,0.00
2018-06-30T22:10:03.713Z,0.00
2018-06-30T22:10:38.833Z,0.00
2018-06-30T22:11:14.197Z,0.00
2018-06-30T22:13:50.679Z,0.00
2018-06-30T22:14:26.992Z,0.00
2018-06-30T22:15:02.080Z,0.00
2018-06-30T22:18:19.560Z,0.00
2018-06-30T22:18:54.965Z,0.00
2018-06-30T22:19:30.344Z,0.00
2018-06-30T22:20:05.573Z,0.00
2018-06-30T22:20:40.653Z,0.00
2018-06-30T22:21:16.087Z,0.00
2018-06-30T22:21:51.459Z,0.00
2018-06-30T22:22:26.567Z,0.00
2018-06-30T22:23:01.859Z,0.00
2018-06-30T22:23:37.201Z,0.00
2018-06-30T22:24:12.508Z,0.00
2018-06-30T22:24:47.897Z,0.00
2018-06-30T22:25:22.994Z,0.00
2018-06-30T22:25:58.287Z,0.00
2018-06-30T22:26:33.617Z,0.00
2018-06-30T22:27:08.873Z,0.00
2018-06-30T22:27:44.280Z,0.00
2018-06-30T22:28:19.400Z,0.00
2018-06-30T22:28:55.441Z,0.00
2018-06-30T22:29:30.857Z,0.00
2018-06-30T22:30:06.278Z,0.00
2018-06-30T22:30:46.641Z,0.00
2018-06-30T22:31:22.155Z,0.00
2018-06-30T22:31:58.329Z,0.00
2018-06-30T22:32:33.718Z,0.00
2018-06-30T22:33:09.636Z,0.00
2018-06-30T22:33:44.921Z,0.00
2018-06-30T22:34:19.963Z,0.00
2018-06-30T22:34:55.169Z,0.00
2018-06-30T22:35:30.475Z,0.00
2018-06-30T22:36:05.780Z,0.00
2018-06-30T22:36:41.806Z,0.00
2018-06-30T22:37:16.930Z,0.00
2018-06-30T22:37:52.230Z,0.00
2018-06-30T22:38:27.459Z,0.00
2018-06-30T22:39:02.974Z,0.00
2018-06-30T22:39:38.480Z,0.00
2018-06-30T22:40:13.797Z,0.00
2018-06-30T22:40:49.178Z,0.00
2018-06-30T22:41:24.802Z,0.00
2018-06-30T22:42:00.093Z,0.00
2018-06-30T22:42:35.536Z,0.00
2018-06-30T22:43:11.238Z,0.00
2018-06-30T22:43:46.485Z,0.00
2018-06-30T22:44:21.521Z,0.00
2018-06-30T22:44:57.026Z,0.00
2018-06-30T22:45:32.395Z,0.00
2018-06-30T22:46:07.693Z,0.00
2018-06-30T22:46:44.811Z,0.00
2018-06-30T22:47:20.271Z,0.00
2018-06-30T22:47:55.659Z,0.00
2018-06-30T22:48:31.065Z,0.00
2018-06-30T22:49:06.278Z,0.00
2018-06-30T22:49:41.521Z,0.00
2018-06-30T22:50:16.740Z,0.00
2018-06-30T22:50:53.229Z,0.00
2018-06-30T22:51:28.638Z,0.00
2018-06-30T22:52:03.915Z,0.00
2018-06-30T22:52:39.159Z,0.00
2018-06-30T22:53:14.386Z,0.00
2018-06-30T22:53:49.779Z,0.00
2018-06-30T22:54:25.093Z,0.00
2018-06-30T22:55:00.323Z,0.00
2018-06-30T22:55:35.943Z,0.00
2018-06-30T22:56:10.944Z,0.00
2018-06-30T22:56:46.395Z,0.00
2018-06-30T22:57:22.107Z,0.00
2018-06-30T22:57:57.627Z,0.00
2018-06-30T22:58:33.070Z,0.00
2018-06-30T22:59:08.482Z,0.00
2018-06-30T22:59:47.203Z,0.00
2018-06-30T23:00:22.455Z,0.00
2018-06-30T23:00:57.908Z,0.00
2018-06-30T23:01:33.225Z,0.00
2018-06-30T23:02:08.765Z,0.00
2018-06-30T23:02:44.490Z,0.00
2018-06-30T23:03:19.817Z,0.00
2018-06-30T23:03:55.123Z,0.00
2018-06-30T23:04:30.357Z,0.00
2018-06-30T23:05:06.144Z,0.00
2018-06-30T23:07:42.698Z,0.00
2018-06-30T23:08:17.902Z,0.00
2018-06-30T23:08:53.513Z,0.00
2018-06-30T23:09:29.046Z,0.00
2018-06-30T23:10:04.309Z,0.00
2018-06-30T23:10:40.929Z,0.00
2018-06-30T23:11:16.053Z,0.00
2018-06-30T23:11:51.224Z,0.00
2018-06-30T23:12:26.546Z,0.00
2018-06-30T23:13:01.744Z,0.00
2018-06-30T23:13:36.827Z,0.00
2018-06-30T23:14:13.550Z,0.00
2018-06-30T23:14:48.760Z,0.00
2018-06-30T23:15:24.376Z,0.00
2018-06-30T23:15:59.540Z,0.00
2018-06-30T23:16:35.055Z,0.00
2018-06-30T23:17:10.254Z,0.00
2018-06-30T23:17:45.575Z,0.00
2018-06-30T23:18:20.859Z,0.00
2018-06-30T23:18:56.270Z,0.00
2018-06-30T23:19:31.492Z,0.00
2018-06-30T23:20:06.884Z,0.00
2018-06-30T23:20:42.226Z,0.00
2018-06-30T23:21:17.524Z,0.00
2018-06-30T23:21:52.729Z,0.00
2018-06-30T23:22:28.134Z,0.00
2018-06-30T23:23:03.306Z,0.00
2018-06-30T23:23:38.895Z,0.00
2018-06-30T23:24:14.136Z,0.00
2018-06-30T23:24:49.403Z,0.00
2018-06-30T23:25:24.608Z,0.00
2018-06-30T23:25:59.897Z,0.00
2018-06-30T23:26:35.631Z,0.00
2018-06-30T23:27:11.333Z,0.00
2018-06-30T23:27:46.846Z,0.00
2018-06-30T23:28:22.254Z,0.00
2018-06-30T23:28:57.357Z,0.00
2018-06-30T23:29:32.719Z,0.00
2018-06-30T23:30:07.999Z,0.00
2018-06-30T23:30:44.295Z,0.00
2018-06-30T23:31:19.587Z,0.00
2018-06-30T23:31:54.924Z,0.00
2018-06-30T23:32:30.335Z,0.00
2018-06-30T23:33:05.560Z,0.00
2018-06-30T23:33:41.022Z,0.00
2018-06-30T23:34:16.432Z,0.00
2018-06-30T23:34:51.695Z,0.00
2018-06-30T23:35:27.411Z,0.00
2018-06-30T23:36:02.692Z,0.00
2018-06-30T23:36:38.100Z,0.00
2018-06-30T23:37:13.496Z,0.00
2018-06-30T23:37:48.617Z,0.00
2018-06-30T23:38:24.040Z,0.00
2018-06-30T23:38:59.225Z,0.00
2018-06-30T23:39:34.996Z,0.00
2018-06-30T23:40:10.388Z,0.00
2018-06-30T23:40:45.824Z,0.00
2018-06-30T23:41:21.328Z,0.00
2018-06-30T23:41:56.454Z,0.00
2018-06-30T23:42:31.677Z,0.00
2018-06-30T23:43:06.799Z,0.00
2018-06-30T23:43:42.223Z,0.00
2018-06-30T23:44:17.427Z,0.00
2018-06-30T23:44:52.696Z,0.00
2018-06-30T23:45:28.219Z,0.00
2018-06-30T23:46:03.213Z,0.00
2018-06-30T23:46:38.623Z,0.00
2018-06-30T23:47:14.014Z,0.00
2018-06-30T23:47:49.332Z,0.00
2018-06-30T23:48:24.665Z,0.00
2018-06-30T23:49:00.055Z,0.00
2018-06-30T23:49:35.306Z,0.00
2018-06-30T23:50:11.101Z,0.00
2018-06-30T23:50:46.240Z,0.00
2018-06-30T23:51:21.632Z,0.00
2018-06-30T23:51:56.962Z,0.00
2018-06-30T23:52:32.093Z,0.00
2018-06-30T23:53:07.508Z,0.00
2018-06-30T23:53:42.925Z,0.00
2018-06-30T23:54:18.231Z,0.00
2018-06-30T23:54:53.493Z,0.00
2018-06-30T23:55:28.713Z,0.00
2018-06-30T23:56:05.745Z,0.00
2018-06-30T23:56:42.468Z,0.00
2018-06-30T23:57:17.762Z,0.00
2018-06-30T23:57:53.110Z,0.00
2018-06-30T23:58:28.647Z,0.00
2018-06-30T23:59:03.937Z,0.00
2018-06-30T23:59:39.358Z,0.00
